createdAt,value
2017-05-01T10:17:10.564Z,2.66
2017-05-01T10:27:20.593Z,2.78
2017-05-01T10:29:49.947Z,2.64
2017-05-01T10:32:19.303Z,7.02
2017-05-01T10:34:49.333Z,2.56
2017-05-01T10:37:18.011Z,2.84
2017-05-01T10:39:48.208Z,9.56
2017-05-01T10:42:17.601Z,18.96
2017-05-01T10:44:47.731Z,15.74
2017-05-01T10:47:17.953Z,13.06
2017-05-01T10:49:48.225Z,14.12
2017-05-01T10:52:17.630Z,24.18
2017-05-01T10:54:47.989Z,17.43
2017-05-01T11:01:14.261Z,10.20
2017-05-01T11:03:41.516Z,5.74
2017-05-01T11:06:10.613Z,9.72
2017-05-01T11:11:07.885Z,8.35
2017-05-01T11:13:38.863Z,4.48
2017-05-01T11:16:09.847Z,6.20
2017-05-01T11:18:41.671Z,4.32
2017-05-01T11:21:11.775Z,9.18
2017-05-01T11:23:42.742Z,9.72
2017-05-01T11:27:15.673Z,5.87
2017-05-01T11:29:48.815Z,8.53
2017-05-01T11:39:52.768Z,6.00
2017-05-01T11:49:56.766Z,6.66
2017-05-01T11:57:31.621Z,4.70
2017-05-01T12:14:55.764Z,1.84
2017-05-01T12:17:28.785Z,5.82
2017-05-01T12:22:31.843Z,2.58
2017-05-01T12:25:35.349Z,3.57
2017-05-01T12:28:04.624Z,5.06
2017-05-01T12:30:34.600Z,4.84
2017-05-01T12:33:04.645Z,3.44
2017-05-01T12:35:34.629Z,3.00
2017-05-01T12:38:04.589Z,2.64
2017-05-01T12:42:57.266Z,6.10
2017-05-01T12:45:23.261Z,8.72
2017-05-01T12:47:49.151Z,4.80
2017-05-01T12:50:15.004Z,3.46
2017-05-01T12:52:40.834Z,7.36
2017-05-01T12:55:06.778Z,2.16
2017-05-01T12:57:32.638Z,1.50
2017-05-01T12:59:58.493Z,1.76
2017-05-01T13:02:24.449Z,2.22
2017-05-01T13:04:50.381Z,2.50
2017-05-01T13:07:16.242Z,1.72
2017-05-01T13:09:42.189Z,2.48
2017-05-01T13:12:08.062Z,1.54
2017-05-01T13:14:33.943Z,4.70
2017-05-01T13:16:59.915Z,1.86
2017-05-01T13:19:25.945Z,8.40
2017-05-01T13:21:51.837Z,4.46
2017-05-01T13:24:17.673Z,3.38
2017-05-01T13:26:43.568Z,3.56
2017-05-01T13:29:09.602Z,2.32
2017-05-01T13:31:35.511Z,1.28
2017-05-01T13:34:01.345Z,3.62
2017-05-01T13:36:27.203Z,4.50
2017-05-01T13:38:53.051Z,1.38
2017-05-01T13:41:19.000Z,1.42
2017-05-01T13:43:44.851Z,2.14
2017-05-01T13:46:10.697Z,1.64
2017-05-01T13:48:36.620Z,5.36
2017-05-01T13:51:02.467Z,1.96
2017-05-01T13:53:28.452Z,1.40
2017-05-01T13:55:54.323Z,1.88
2017-05-01T13:58:20.170Z,2.12
2017-05-01T14:00:46.042Z,3.38
2017-05-01T14:03:11.971Z,1.54
2017-05-01T14:05:38.016Z,2.26
2017-05-01T14:08:03.923Z,1.88
2017-05-01T14:10:29.843Z,2.24
2017-05-01T14:12:55.781Z,2.58
2017-05-01T14:15:21.686Z,1.28
2017-05-01T14:17:47.633Z,1.92
2017-05-01T14:20:33.854Z,1.40
2017-05-01T14:22:59.775Z,1.98
2017-05-01T14:25:25.706Z,3.02
2017-05-01T14:27:51.569Z,1.44
2017-05-01T14:30:17.409Z,1.50
2017-05-01T14:32:43.331Z,1.48
2017-05-01T14:35:09.202Z,3.82
2017-05-01T14:37:35.071Z,1.92
2017-05-01T14:40:01.087Z,1.40
2017-05-01T14:42:26.954Z,3.44
2017-05-01T14:44:52.831Z,1.22
2017-05-01T14:47:18.810Z,3.30
2017-05-01T14:49:44.714Z,3.54
2017-05-01T14:52:11.319Z,1.34
2017-05-01T14:54:37.207Z,2.20
2017-05-01T14:57:03.071Z,5.60
2017-05-01T14:59:28.930Z,1.62
2017-05-01T15:01:54.833Z,4.24
2017-05-01T15:04:20.691Z,1.48
2017-05-01T15:06:46.602Z,1.88
2017-05-01T15:09:12.661Z,1.68
2017-05-01T15:11:38.502Z,2.40
2017-05-01T15:14:04.367Z,5.25
2017-05-01T15:16:30.259Z,28.40
2017-05-01T15:18:56.118Z,23.04
2017-05-01T15:21:21.966Z,79.02
2017-05-01T15:23:47.843Z,40.64
2017-05-01T15:26:13.697Z,31.28
2017-05-01T15:28:39.584Z,25.58
2017-05-01T15:31:05.545Z,16.98
2017-05-01T15:33:31.386Z,14.94
2017-05-01T15:35:57.247Z,18.04
2017-05-01T15:38:23.087Z,14.48
2017-05-01T15:40:48.979Z,10.44
2017-05-01T15:43:14.870Z,8.14
2017-05-01T15:45:40.720Z,7.84
2017-05-01T15:48:06.583Z,7.94
2017-05-01T15:50:32.542Z,10.68
2017-05-01T15:52:58.376Z,10.68
2017-05-01T15:55:24.215Z,8.56
2017-05-01T15:57:50.135Z,8.44
2017-05-01T16:00:15.977Z,7.78
2017-05-01T16:02:41.822Z,9.06
2017-05-01T16:05:08.072Z,6.38
2017-05-01T16:07:33.854Z,10.72
2017-05-01T16:09:59.697Z,6.62
2017-05-01T16:12:26.293Z,6.08
2017-05-01T16:14:52.124Z,8.82
2017-05-01T16:17:17.967Z,93.04
2017-05-01T16:19:43.908Z,85.96
2017-05-01T16:22:09.756Z,44.58
2017-05-01T16:24:35.598Z,78.76
2017-05-01T16:27:01.456Z,36.32
2017-05-01T16:29:27.319Z,150.42
2017-05-01T16:31:53.189Z,51.44
2017-05-01T16:34:19.045Z,33.72
2017-05-01T16:36:44.920Z,33.98
2017-05-01T16:39:10.772Z,21.46
2017-05-01T16:41:36.637Z,37.32
2017-05-01T16:44:02.500Z,39.46
2017-05-01T16:46:28.350Z,30.94
2017-05-01T16:48:54.198Z,31.62
2017-05-01T16:51:20.077Z,42.08
2017-05-01T16:53:45.966Z,24.58
2017-05-01T16:56:11.794Z,16.16
2017-05-01T16:58:38.519Z,21.20
2017-05-01T17:01:04.378Z,11.26
2017-05-01T17:03:30.213Z,10.02
2017-05-01T17:05:56.167Z,10.04
2017-05-01T17:08:22.054Z,8.72
2017-05-01T17:10:47.925Z,7.58
2017-05-01T17:13:13.804Z,8.24
2017-05-01T17:15:39.808Z,8.80
2017-05-01T17:18:05.660Z,8.36
2017-05-01T17:20:31.537Z,5.60
2017-05-01T17:22:57.386Z,4.26
2017-05-01T17:25:23.237Z,3.36
2017-05-01T17:27:49.094Z,3.02
2017-05-01T17:30:15.078Z,5.38
2017-05-01T17:32:41.226Z,7.00
2017-05-01T17:35:07.111Z,4.34
2017-05-01T17:37:33.063Z,4.42
2017-05-01T17:39:58.918Z,5.10
2017-05-01T17:42:24.811Z,3.32
2017-05-01T17:44:50.658Z,5.00
2017-05-01T17:47:16.538Z,3.88
2017-05-01T17:49:42.386Z,2.96
2017-05-01T17:52:08.271Z,3.96
2017-05-01T17:54:34.150Z,5.56
2017-05-01T17:56:59.994Z,6.66
2017-05-01T17:59:25.927Z,8.02
2017-05-01T18:01:51.766Z,2.90
2017-05-01T18:04:17.693Z,4.54
2017-05-01T18:06:43.553Z,3.28
2017-05-01T18:09:09.403Z,7.05
2017-05-01T18:11:35.379Z,4.74
2017-05-01T18:14:01.262Z,11.02
2017-05-01T18:16:33.267Z,7.36
2017-05-01T18:19:05.370Z,8.92
2017-05-01T18:21:37.383Z,10.48
2017-05-01T18:24:09.542Z,5.90
2017-05-01T18:26:41.459Z,4.30
2017-05-01T18:29:13.447Z,7.08
2017-05-01T18:31:45.388Z,6.00
2017-05-01T18:34:17.539Z,5.92
2017-05-01T18:36:49.378Z,6.24
2017-05-01T18:39:22.057Z,6.38
2017-05-01T18:41:53.922Z,4.66
2017-05-01T18:44:26.003Z,8.94
2017-05-01T18:46:58.047Z,4.80
2017-05-01T18:49:29.922Z,7.02
2017-05-01T18:52:02.009Z,4.96
2017-05-01T18:54:34.274Z,4.42
2017-05-01T18:57:06.417Z,5.62
2017-05-01T18:59:38.610Z,4.56
2017-05-01T19:02:10.798Z,4.36
2017-05-01T19:04:43.043Z,6.52
2017-05-01T19:07:15.382Z,2.16
2017-05-01T19:09:47.523Z,3.20
2017-05-01T19:12:19.777Z,3.46
2017-05-01T19:14:52.018Z,6.78
2017-05-01T19:17:24.989Z,4.20
2017-05-01T19:19:57.425Z,3.00
2017-05-01T19:22:29.619Z,3.44
2017-05-01T19:25:01.936Z,2.88
2017-05-01T19:27:34.113Z,4.56
2017-05-01T19:30:06.392Z,2.80
2017-05-01T19:32:38.711Z,4.26
2017-05-01T19:35:11.143Z,3.58
2017-05-01T19:37:43.965Z,4.98
2017-05-01T19:40:17.125Z,1.84
2017-05-01T19:42:51.444Z,4.48
2017-05-01T19:45:24.172Z,4.58
2017-05-01T19:47:56.752Z,3.52
2017-05-01T19:50:29.045Z,4.08
2017-05-01T19:53:02.250Z,1.94
2017-05-01T19:55:35.473Z,4.50
2017-05-01T19:58:08.406Z,6.02
2017-05-01T20:00:40.570Z,3.82
2017-05-01T20:03:13.024Z,2.66
2017-05-01T20:05:45.207Z,2.18
2017-05-01T20:08:18.435Z,1.60
2017-05-01T20:10:52.449Z,3.28
2017-05-01T20:13:25.343Z,2.40
2017-05-01T20:15:58.455Z,3.44
2017-05-01T20:18:31.096Z,3.10
2017-05-01T20:21:04.446Z,2.44
2017-05-01T20:23:36.838Z,4.78
2017-05-01T20:26:09.156Z,6.16
2017-05-01T20:28:41.259Z,3.90
2017-05-01T20:31:13.579Z,2.22
2017-05-01T20:33:45.763Z,2.82
2017-05-01T20:36:17.922Z,2.22
2017-05-01T20:38:50.188Z,7.52
2017-05-01T20:41:22.334Z,7.96
2017-05-01T20:43:54.615Z,12.70
2017-05-01T20:46:26.747Z,4.68
2017-05-01T20:48:58.899Z,4.22
2017-05-01T20:51:31.121Z,2.76
2017-05-01T20:54:03.279Z,2.72
2017-05-01T20:56:35.550Z,3.60
2017-05-01T20:59:07.799Z,2.94
2017-05-01T21:01:40.038Z,4.70
2017-05-01T21:04:12.203Z,4.38
2017-05-01T21:06:44.465Z,5.32
2017-05-01T21:09:14.627Z,3.00
2017-05-01T21:11:40.515Z,2.12
2017-05-01T21:14:06.368Z,4.54
2017-05-01T21:16:32.337Z,3.44
2017-05-01T21:18:58.238Z,2.70
2017-05-01T21:21:24.106Z,2.02
2017-05-01T21:23:49.938Z,3.66
2017-05-01T21:26:15.790Z,3.54
2017-05-01T21:28:41.662Z,2.10
2017-05-01T21:31:07.568Z,5.84
2017-05-01T21:33:33.399Z,2.70
2017-05-01T21:35:59.344Z,3.42
2017-05-01T21:38:25.214Z,4.14
2017-05-01T21:40:51.034Z,5.72
2017-05-01T21:43:16.895Z,2.74
2017-05-01T21:45:42.742Z,2.88
2017-05-01T21:48:09.427Z,2.14
2017-05-01T21:50:35.297Z,3.72
2017-05-01T21:53:01.897Z,4.24
2017-05-01T21:55:27.802Z,4.02
2017-05-01T21:57:53.671Z,6.70
2017-05-01T22:00:20.322Z,3.48
2017-05-01T22:02:46.311Z,5.32
2017-05-01T22:05:12.142Z,2.86
2017-05-01T22:07:38.775Z,2.72
2017-05-01T22:10:04.679Z,2.76
2017-05-01T22:12:30.517Z,4.46
2017-05-01T22:14:56.431Z,2.68
2017-05-01T22:17:23.106Z,4.28
2017-05-01T22:19:49.761Z,2.84
2017-05-01T22:22:15.609Z,13.30
2017-05-01T22:24:41.458Z,4.08
2017-05-01T22:27:08.912Z,4.26
2017-05-01T22:29:34.847Z,4.10
2017-05-01T22:32:01.446Z,3.60
2017-05-01T22:34:27.328Z,3.66
2017-05-01T22:36:54.079Z,3.00
2017-05-01T22:39:20.711Z,2.86
2017-05-01T22:41:46.567Z,5.38
2017-05-01T22:44:12.557Z,4.08
2017-05-01T22:46:38.442Z,6.48
2017-05-01T22:49:05.059Z,2.46
2017-05-01T22:51:30.955Z,3.72
2017-05-01T22:53:56.829Z,2.24
2017-05-01T22:56:23.518Z,2.44
2017-05-01T22:58:49.384Z,1.94
2017-05-01T23:01:15.207Z,2.08
2017-05-01T23:03:41.052Z,2.52
2017-05-01T23:06:06.918Z,2.88
2017-05-01T23:08:32.850Z,2.10
2017-05-01T23:10:58.699Z,3.36
2017-05-01T23:13:24.558Z,2.22
2017-05-01T23:15:50.505Z,2.16
2017-05-01T23:18:16.358Z,1.96
2017-05-01T23:20:42.304Z,1.70
2017-05-01T23:23:08.158Z,5.70
2017-05-01T23:25:33.996Z,2.02
2017-05-01T23:27:59.867Z,1.80
2017-05-01T23:30:25.710Z,2.18
2017-05-01T23:32:51.642Z,2.10
2017-05-01T23:35:17.542Z,2.04
2017-05-01T23:37:43.466Z,1.90
2017-05-01T23:40:09.294Z,2.22
2017-05-01T23:42:35.165Z,2.10
2017-05-01T23:45:01.138Z,2.12
2017-05-01T23:47:27.034Z,1.64
2017-05-01T23:49:52.919Z,1.76
2017-05-01T23:52:18.771Z,1.80
2017-05-01T23:54:44.655Z,2.86
2017-05-01T23:57:10.611Z,2.02
2017-05-01T23:59:36.459Z,2.08
